ENZV/SVG METAR and TAF weather

Enter ICAO airport designator
Station Type Date Time Source
ENZV METAR 2020/09/20 10:50 UTC NOAA

ENZV 201050Z 35009KT 9999 FEW018 15/11 Q1023 NOSIG


Station Type Date Time Source
ENZV Decoded METAR 2020/09/20 10:50 UTC NOAA

Stavanger / Sola, Norway (ENZV) 58-53N 005-38E 9M
Sep 20, 2020 - 06:50 AM EDT / 2020.09.20 1050 UTC
Wind: from the N (350 degrees) at 10 MPH (9 KT):0
Visibility: greater than 7 mile(s):0
Sky conditions: mostly clear
Temperature: 59 F (15 C)
Dew Point: 51 F (11 C)
Relative Humidity: 76%
Pressure (altimeter): 30.21 in. Hg (1023 hPa)
ob: ENZV 201050Z 35009KT 9999 FEW018 15/11 Q1023 NOSIG
cycle: 11

Station Type Date Time Source
ENZV TAF 2020/09/20 06:57 UTC NOAA

TAF ENZV 200500Z 2006/2106 34008KT 9999 FEW020 BKN050
TEMPO 2007/2106 4000 -DZ BR BKN008

Example: see airport list